Time,TemperatureF,DewpointF,PressureIn,WindDirection,WindDirectionDegrees,WindSpeedMPH,WindSpeedGustMPH,Humidity,HourlyPrecipIn,Conditions,Clouds,dailyrainin,SoftwareType,DateUTC
2013-09-24 00:03:00,54.5,45.3,29.86,ESE,112,0.0,-999.0,71,-99.99,,,0.00,Acu-Link.com,2013-09-24 04:03:00,
2013-09-24 00:19:00,54.3,45.1,29.86,East,90,2.2,-999.0,71,-99.99,,,0.00,Acu-Link.com,2013-09-24 04:19:00,
2013-09-24 00:34:00,54.0,45.2,29.86,ESE,112,0.0,-999.0,72,-99.99,,,0.00,Acu-Link.com,2013-09-24 04:34:00,
2013-09-24 00:49:00,54.1,45.3,29.86,ENE,67,1.7,-999.0,72,-99.99,,,0.00,Acu-Link.com,2013-09-24 04:49:00,
2013-09-24 01:04:00,54.0,45.5,29.86,East,90,0.0,-999.0,73,-99.99,,,0.00,Acu-Link.com,2013-09-24 05:04:00,
2013-09-24 01:20:00,53.8,45.7,29.87,ENE,67,1.7,-999.0,74,-99.99,,,0.00,Acu-Link.com,2013-09-24 05:20:00,
2013-09-24 01:35:00,54.0,45.9,29.87,East,90,0.0,-999.0,74,-99.99,,,0.00,Acu-Link.com,2013-09-24 05:35:00,
2013-09-24 01:50:00,54.1,46.0,29.87,ESE,112,0.0,-999.0,74,-99.99,,,0.00,Acu-Link.com,2013-09-24 05:50:00,
2013-09-24 02:06:00,53.8,45.4,29.87,ESE,112,0.0,-999.0,73,-99.99,,,0.00,Acu-Link.com,2013-09-24 06:06:00,
2013-09-24 02:21:00,53.6,45.2,29.87,East,90,0.0,-999.0,73,-99.99,,,0.00,Acu-Link.com,2013-09-24 06:21:00,
2013-09-24 02:36:00,53.2,44.8,29.86,East,90,0.0,-999.0,73,-99.99,,,0.00,Acu-Link.com,2013-09-24 06:36:00,
2013-09-24 02:52:00,53.2,45.1,29.86,North,0,2.2,-999.0,74,-99.99,,,0.00,Acu-Link.com,2013-09-24 06:52:00,
2013-09-24 03:07:00,52.7,44.6,29.86,East,90,1.7,-999.0,74,-99.99,,,0.00,Acu-Link.com,2013-09-24 07:07:00,
2013-09-24 03:22:00,52.5,44.5,29.86,ENE,67,0.0,-999.0,74,-99.99,,,0.00,Acu-Link.com,2013-09-24 07:22:00,
2013-09-24 03:37:00,52.5,44.5,29.86,ESE,112,0.0,-999.0,74,-99.99,,,0.00,Acu-Link.com,2013-09-24 07:37:00,
2013-09-24 03:53:00,52.2,44.2,29.86,ESE,112,0.0,-999.0,74,-99.99,,,0.00,Acu-Link.com,2013-09-24 07:53:00,
2013-09-24 04:09:00,52.2,43.8,29.86,East,90,0.0,-999.0,73,-99.99,,,0.00,Acu-Link.com,2013-09-24 08:09:00,
2013-09-24 04:24:00,52.0,44.0,29.85,ESE,112,0.0,-999.0,74,-99.99,,,0.00,Acu-Link.com,2013-09-24 08:24:00,
2013-09-24 04:39:00,51.8,44.5,29.86,ESE,112,0.0,-999.0,76,-99.99,,,0.00,Acu-Link.com,2013-09-24 08:39:00,
2013-09-24 04:54:00,51.6,44.3,29.86,South,180,0.0,-999.0,76,-99.99,,,0.00,Acu-Link.com,2013-09-24 08:54:00,
2013-09-24 05:09:00,50.4,45.1,29.86,West,270,3.7,-999.0,82,-99.99,,,0.00,Acu-Link.com,2013-09-24 09:09:00,
2013-09-24 05:24:00,49.3,44.0,29.86,SSE,157,1.7,-999.0,82,-99.99,,,0.00,Acu-Link.com,2013-09-24 09:24:00,
2013-09-24 18:25:00,74.1,47.5,29.70,WSW,247,4.7,-999.0,39,-99.99,,,0.00,Acu-Link.com,2013-09-24 22:25:00,
2013-09-24 18:41:00,72.9,47.8,29.70,West,270,1.7,-999.0,41,-99.99,,,0.00,Acu-Link.com,2013-09-24 22:41:00,
2013-09-24 18:56:00,70.7,47.1,29.70,West,270,4.7,-999.0,43,-99.99,,,0.00,Acu-Link.com,2013-09-24 22:56:00,
2013-09-24 19:11:00,70.0,47.7,29.70,NE,45,0.0,-999.0,45,-99.99,,,0.00,Acu-Link.com,2013-09-24 23:11:00,
2013-09-24 19:26:00,69.3,47.0,29.70,South,180,2.7,-999.0,45,-99.99,,,0.00,Acu-Link.com,2013-09-24 23:26:00,
2013-09-24 19:41:00,68.7,47.1,29.70,West,270,2.2,-999.0,46,-99.99,,,0.00,Acu-Link.com,2013-09-24 23:41:00,
2013-09-24 19:57:00,68.2,47.2,29.70,North,0,3.2,-999.0,47,-99.99,,,0.00,Acu-Link.com,2013-09-24 23:57:00,
2013-09-24 20:12:00,68.0,47.0,29.70,WNW,292,1.1,-999.0,47,-99.99,,,0.00,Acu-Link.com,2013-09-25 00:12:00,
2013-09-24 20:27:00,67.3,47.5,29.71,West,270,2.7,-999.0,49,-99.99,,,0.00,Acu-Link.com,2013-09-25 00:27:00,
2013-09-24 20:42:00,67.1,47.8,29.71,SSW,202,5.8,-999.0,50,-99.99,,,0.00,Acu-Link.com,2013-09-25 00:42:00,
2013-09-24 20:58:00,66.6,47.4,29.72,West,270,5.8,-999.0,50,-99.99,,,0.00,Acu-Link.com,2013-09-25 00:58:00,
2013-09-24 21:13:00,66.2,47.0,29.72,SW,225,2.7,-999.0,50,-99.99,,,0.00,Acu-Link.com,2013-09-25 01:13:00,
2013-09-24 21:28:00,65.8,47.2,29.73,NNW,337,3.7,-999.0,51,-99.99,,,0.00,Acu-Link.com,2013-09-25 01:28:00,
2013-09-24 21:43:00,65.3,46.7,29.74,WNW,292,4.7,-999.0,51,-99.99,,,0.00,Acu-Link.com,2013-09-25 01:43:00,
2013-09-24 21:58:00,64.9,46.8,29.74,WNW,292,1.1,-999.0,52,-99.99,,,0.00,Acu-Link.com,2013-09-25 01:58:00,
2013-09-24 22:14:00,64.8,47.3,29.75,WSW,247,0.0,-999.0,53,-99.99,,,0.00,Acu-Link.com,2013-09-25 02:14:00,
2013-09-24 22:29:00,63.9,47.4,29.75,ESE,112,0.0,-999.0,55,-99.99,,,0.00,Acu-Link.com,2013-09-25 02:29:00,
2013-09-24 22:44:00,63.5,47.5,29.75,ESE,112,0.0,-999.0,56,-99.99,,,0.00,Acu-Link.com,2013-09-25 02:44:00,
2013-09-24 22:59:00,63.5,47.5,29.75,ESE,112,0.0,-999.0,56,-99.99,,,0.00,Acu-Link.com,2013-09-25 02:59:00,
2013-09-24 23:14:00,63.5,47.5,29.76,ESE,112,0.0,-999.0,56,-99.99,,,0.00,Acu-Link.com,2013-09-25 03:14:00,
2013-09-24 23:30:00,63.3,46.9,29.76,SW,225,1.1,-999.0,55,-99.99,,,0.00,Acu-Link.com,2013-09-25 03:30:00,
2013-09-24 23:46:00,63.1,47.1,29.76,East,90,0.0,-999.0,56,-99.99,,,0.00,Acu-Link.com,2013-09-25 03:46:00,